createdAt,value
2022-12-18T05:04:43.849Z,7.80
2022-12-18T05:08:55.372Z,9.60
2022-12-18T05:13:06.873Z,10.53
2022-12-18T05:17:18.476Z,10.70
2022-12-18T05:21:31.195Z,10.43
2022-12-18T05:25:42.688Z,9.20
2022-12-18T05:29:54.144Z,9.97
2022-12-18T05:34:06.086Z,9.50
2022-12-18T05:38:17.573Z,10.23
2022-12-18T05:42:29.132Z,9.20
2022-12-18T05:46:40.710Z,9.10
2022-12-18T05:50:52.392Z,9.97
2022-12-18T05:55:04.119Z,10.97
2022-12-18T05:59:15.593Z,9.77
2022-12-18T06:03:33.567Z,9.60
2022-12-18T06:07:45.408Z,10.50
2022-12-18T06:11:57.001Z,9.87
2022-12-18T06:16:09.177Z,10.47
2022-12-18T06:20:21.092Z,9.73
2022-12-18T06:24:32.519Z,10.47
2022-12-18T06:28:44.047Z,9.87
2022-12-18T06:32:56.866Z,9.97
2022-12-18T06:37:08.608Z,9.43
2022-12-18T06:41:21.837Z,10.73
2022-12-18T06:45:33.424Z,10.10
2022-12-18T06:49:45.023Z,10.23
2022-12-18T06:53:56.553Z,10.70
2022-12-18T06:58:08.017Z,9.33
2022-12-18T07:02:19.892Z,8.27
2022-12-18T07:06:31.948Z,9.13
2022-12-18T07:10:46.982Z,9.27
2022-12-18T07:14:59.740Z,9.80
2022-12-18T07:19:11.262Z,9.97
2022-12-18T07:23:22.761Z,9.77
2022-12-18T07:27:34.196Z,10.33
2022-12-18T07:31:46.892Z,16.23
2022-12-18T07:36:00.604Z,18.47
2022-12-18T07:40:13.300Z,10.87
2022-12-18T07:44:25.137Z,11.33
2022-12-18T07:48:36.816Z,10.13
2022-12-18T07:52:48.620Z,11.00
2022-12-18T07:57:00.616Z,10.97
2022-12-18T08:01:12.986Z,11.87
2022-12-18T08:05:24.748Z,11.37
2022-12-18T08:09:36.205Z,11.97
2022-12-18T08:13:47.669Z,11.87
2022-12-18T08:17:59.252Z,12.00
2022-12-18T08:22:10.753Z,10.40
2022-12-18T08:26:23.053Z,10.53
2022-12-18T08:30:34.595Z,11.90
2022-12-18T08:34:46.065Z,11.60
2022-12-18T08:38:58.171Z,12.33
2022-12-18T08:43:29.943Z,11.50
2022-12-18T08:47:41.408Z,12.33
2022-12-18T08:51:55.728Z,11.77
2022-12-18T08:56:07.482Z,13.40
2022-12-18T09:00:19.122Z,15.57
2022-12-18T09:04:30.615Z,11.93
2022-12-18T09:08:43.056Z,12.27
2022-12-18T09:12:55.007Z,12.37
2022-12-18T09:17:06.642Z,13.37
2022-12-18T09:21:22.201Z,15.73
2022-12-18T09:25:36.611Z,15.63
2022-12-18T09:29:48.156Z,14.87
2022-12-18T09:33:59.694Z,23.33
2022-12-18T09:38:16.447Z,16.60
2022-12-18T09:42:28.259Z,16.77
2022-12-18T09:47:16.166Z,16.30
2022-12-18T09:51:47.719Z,15.87
2022-12-18T09:56:50.575Z,15.70
2022-12-18T10:01:15.632Z,15.87
2022-12-18T10:06:17.793Z,17.00
2022-12-18T10:10:49.086Z,15.43
2022-12-18T10:15:35.044Z,16.07
2022-12-18T10:19:53.974Z,15.03
2022-12-18T10:24:28.810Z,14.43
2022-12-18T10:28:42.640Z,15.37
2022-12-18T10:32:55.235Z,16.17
2022-12-18T10:37:13.838Z,16.13
2022-12-18T10:41:27.716Z,15.67
2022-12-18T10:45:42.631Z,16.00
2022-12-18T10:49:56.390Z,14.33
2022-12-18T10:54:15.164Z,14.73
2022-12-18T10:58:30.258Z,16.43
2022-12-18T11:02:45.132Z,15.77
2022-12-18T11:07:11.187Z,16.30
2022-12-18T11:11:47.705Z,18.87
2022-12-18T11:16:03.012Z,17.00
2022-12-18T11:20:38.692Z,17.77
2022-12-18T11:29:46.755Z,16.97
2022-12-18T11:51:00.487Z,18.17
2022-12-18T12:02:43.410Z,17.03
2022-12-18T12:13:27.400Z,17.53
2022-12-18T12:17:49.351Z,17.33
2022-12-18T12:22:16.179Z,18.73
2022-12-18T12:26:30.636Z,16.63
2022-12-18T12:31:01.996Z,18.20
2022-12-18T12:35:37.783Z,17.80
2022-12-18T12:39:49.478Z,17.57
2022-12-18T12:44:08.008Z,17.40
2022-12-18T12:48:49.531Z,19.00
2022-12-18T12:53:08.323Z,17.80
2022-12-18T12:57:33.345Z,18.03
2022-12-18T13:02:05.740Z,17.17
2022-12-18T13:06:44.907Z,18.83
2022-12-18T13:11:19.875Z,18.57
2022-12-18T13:15:39.957Z,19.27
2022-12-18T13:19:53.689Z,19.83
2022-12-18T13:24:27.603Z,18.07
2022-12-18T13:28:51.023Z,17.53
2022-12-18T13:33:14.669Z,18.93
2022-12-18T13:37:32.401Z,17.67
2022-12-18T13:41:45.614Z,18.67
2022-12-18T13:46:04.657Z,18.10
2022-12-18T13:50:26.353Z,18.27
2022-12-18T13:54:42.561Z,17.63
2022-12-18T13:59:16.453Z,18.80
2022-12-18T14:03:29.744Z,17.43
2022-12-18T14:07:44.977Z,17.90
2022-12-18T14:12:19.315Z,17.63
2022-12-18T14:16:31.314Z,19.43
2022-12-18T14:20:52.159Z,19.53
2022-12-18T14:25:13.454Z,18.93
2022-12-18T14:29:30.387Z,18.03
2022-12-18T14:33:42.233Z,18.17
2022-12-18T14:37:53.946Z,17.80
2022-12-18T14:42:05.465Z,18.63
2022-12-18T14:46:28.371Z,17.70
2022-12-18T14:50:40.598Z,19.93
2022-12-18T14:54:53.473Z,18.93
2022-12-18T14:59:24.837Z,19.17
2022-12-18T15:03:36.764Z,18.00
2022-12-18T15:07:51.546Z,18.33
2022-12-18T15:12:03.782Z,18.10
2022-12-18T15:16:15.416Z,18.70
2022-12-18T15:20:27.529Z,19.23
2022-12-18T15:24:39.046Z,19.80
2022-12-18T15:28:51.886Z,19.17
2022-12-18T15:33:26.111Z,19.40
2022-12-18T15:37:38.723Z,22.53
2022-12-18T15:42:10.603Z,18.10
2022-12-18T15:46:27.302Z,18.50
2022-12-18T15:50:39.076Z,19.63
2022-12-18T15:55:09.018Z,22.27
2022-12-18T15:59:21.648Z,18.27
2022-12-18T16:03:33.261Z,18.80
2022-12-18T16:07:45.941Z,19.77
2022-12-18T16:11:57.433Z,19.40
2022-12-18T16:16:09.636Z,20.27
2022-12-18T16:20:22.929Z,20.60
2022-12-18T16:24:37.046Z,19.90
2022-12-18T16:28:48.692Z,20.17
2022-12-18T16:33:00.610Z,19.17
2022-12-18T16:37:14.427Z,19.37
2022-12-18T16:41:31.907Z,18.80
2022-12-18T16:45:43.322Z,18.37
2022-12-18T16:49:54.874Z,18.70
2022-12-18T16:54:10.323Z,19.97
2022-12-18T16:58:24.216Z,20.57
2022-12-18T17:02:35.982Z,20.53
2022-12-18T17:06:51.718Z,21.13
2022-12-18T17:11:07.854Z,19.57
2022-12-18T17:15:19.314Z,21.60
2022-12-18T17:19:31.538Z,20.63
2022-12-18T17:23:44.235Z,19.70
2022-12-18T17:27:55.751Z,18.73
2022-12-18T17:32:07.174Z,19.43
2022-12-18T17:36:18.861Z,18.43
2022-12-18T17:40:33.228Z,17.83
2022-12-18T17:44:45.741Z,18.27
2022-12-18T17:48:58.398Z,19.80
2022-12-18T17:53:09.860Z,18.90
2022-12-18T17:57:22.350Z,18.60
2022-12-18T18:01:40.940Z,19.27
2022-12-18T18:05:57.093Z,19.07
2022-12-18T18:10:09.340Z,17.53
2022-12-18T18:14:21.281Z,16.13
2022-12-18T18:18:33.020Z,17.70
2022-12-18T18:22:44.647Z,17.37
2022-12-18T18:26:56.402Z,18.90
2022-12-18T18:31:10.380Z,18.73
2022-12-18T18:35:52.411Z,16.30
2022-12-18T18:39:53.442Z,17.33
2022-12-18T18:44:05.121Z,18.40
2022-12-18T18:48:16.561Z,18.00
2022-12-18T18:52:28.053Z,19.47
2022-12-18T18:57:40.100Z,16.97
2022-12-18T19:01:14.531Z,17.93
2022-12-18T19:05:26.051Z,18.07
2022-12-18T19:09:37.590Z,17.73
2022-12-18T19:13:49.038Z,17.87
2022-12-18T19:18:00.637Z,19.33
2022-12-18T19:22:12.510Z,19.10
2022-12-18T19:26:27.873Z,20.30
2022-12-18T19:30:40.188Z,22.00
2022-12-18T19:34:53.754Z,19.93
2022-12-18T19:39:14.412Z,19.33
2022-12-18T19:43:27.015Z,20.20
2022-12-18T19:47:38.537Z,19.27
2022-12-18T19:51:50.548Z,18.13
2022-12-18T19:56:07.517Z,19.57
2022-12-18T20:00:19.162Z,18.43
2022-12-18T20:04:31.952Z,18.93
2022-12-18T20:08:43.508Z,21.83
2022-12-18T20:12:55.038Z,25.00
2022-12-18T20:17:08.072Z,21.00
2022-12-18T20:21:21.032Z,21.63
2022-12-18T20:25:32.611Z,20.50
2022-12-18T20:29:44.277Z,20.67
2022-12-18T20:34:00.232Z,18.00
2022-12-18T20:38:13.487Z,21.03
2022-12-18T20:42:25.108Z,22.77
2022-12-18T20:46:36.606Z,19.50
2022-12-18T20:50:58.195Z,18.50
2022-12-18T20:55:11.751Z,18.17
2022-12-18T20:59:25.486Z,18.77
2022-12-18T21:03:38.275Z,18.33
2022-12-18T21:07:50.008Z,18.37
2022-12-18T21:12:20.120Z,17.60
2022-12-18T21:16:31.833Z,18.60
2022-12-18T21:20:52.465Z,17.97
2022-12-18T21:25:08.254Z,17.67
2022-12-18T21:29:25.725Z,16.83
2022-12-18T21:33:42.261Z,18.03
2022-12-18T21:37:53.900Z,17.63
2022-12-18T21:43:08.416Z,18.17
2022-12-18T21:47:21.756Z,18.17
2022-12-18T21:51:35.966Z,16.97
2022-12-18T21:55:47.431Z,17.23
2022-12-18T21:59:59.078Z,18.47
2022-12-18T22:04:10.822Z,17.87
2022-12-18T22:08:22.344Z,17.50
2022-12-18T22:12:41.623Z,17.93
2022-12-18T22:16:57.320Z,18.30
2022-12-18T22:21:29.764Z,18.43
2022-12-18T22:25:41.326Z,17.57
